Time;durP1;ratioP1;P1;durP2;ratioP2;P2;SDS_P1;SDS_P2;PMS_P1;PMS_P2;Temp;Humidity;BMP_temperature;BMP_pressure;BME280_temperature;BME280_humidity;BME280_pressure;Samples;Min_cycle;Max_cycle;Signal;HPM_P1;HPM_P2
2021/07/23 00:00:16;;;;;;;9.73;7.93;;;;;;;15.15;73.24;102234.31;688179;28;980;-66
2021/07/23 00:00:36;;;;;;;10.20;7.90;;;;;;;15.17;73.21;102235.13;688256;28;924;-66
2021/07/23 00:00:56;;;;;;;9.87;7.63;;;;;;;15.19;73.28;102235.03;688251;28;1059;-66
2021/07/23 00:01:17;;;;;;;10.07;7.60;;;;;;;15.19;73.38;102235.91;688120;28;976;-65
2021/07/23 00:01:37;;;;;;;9.50;7.60;;;;;;;15.21;73.33;102233.22;688200;28;860;-65
2021/07/23 00:01:58;;;;;;;9.23;7.93;;;;;;;15.24;73.23;102234.84;688289;28;1016;-66
2021/07/23 00:02:22;;;;;;;9.40;7.65;;;;;;;15.23;73.06;102231.34;688124;28;1269;-66
2021/07/23 00:02:42;;;;;;;10.02;7.80;;;;;;;15.19;73.23;102235.91;687916;28;1027;-66
2021/07/23 00:03:03;;;;;;;9.90;7.90;;;;;;;15.14;73.53;102229.94;688048;28;906;-66
2021/07/23 00:03:23;;;;;;;10.07;8.00;;;;;;;15.16;73.75;102224.53;687989;28;746;-66
2021/07/23 00:03:43;;;;;;;9.33;7.93;;;;;;;15.17;73.53;102232.47;687933;28;1015;-66
2021/07/23 00:04:04;;;;;;;9.70;8.02;;;;;;;15.15;73.55;102230.78;687984;28;806;-66
2021/07/23 00:04:24;;;;;;;9.30;7.80;;;;;;;15.20;73.38;102232.31;687938;28;1047;-66
2021/07/23 00:04:45;;;;;;;10.32;8.00;;;;;;;15.19;73.39;102227.94;688003;28;851;-66
2021/07/23 00:05:06;;;;;;;10.85;8.05;;;;;;;15.22;73.38;102234.06;687770;28;900;-65
2021/07/23 00:05:26;;;;;;;10.10;8.07;;;;;;;15.23;72.94;102227.81;688234;28;805;-65
2021/07/23 00:05:47;;;;;;;10.20;7.88;;;;;;;15.27;72.95;102232.09;688102;28;892;-66
2021/07/23 00:06:08;;;;;;;10.40;8.10;;;;;;;15.28;73.19;102225.84;688215;28;943;-66
2021/07/23 00:06:28;;;;;;;9.30;7.93;;;;;;;15.20;73.19;102232.31;688245;28;1350;-66
2021/07/23 00:06:49;;;;;;;10.15;8.30;;;;;;;15.20;73.31;102226.16;688053;28;979;-66
2021/07/23 00:07:09;;;;;;;10.52;8.27;;;;;;;15.20;73.23;102227.00;688290;28;911;-65
2021/07/23 00:07:29;;;;;;;9.73;7.60;;;;;;;15.25;73.04;102234.81;688133;28;975;-66
2021/07/23 00:07:50;;;;;;;9.87;7.90;;;;;;;15.25;73.31;102228.63;688122;28;860;-66
2021/07/23 00:08:10;;;;;;;9.73;7.82;;;;;;;15.17;73.65;102228.91;688215;28;896;-66
2021/07/23 00:08:31;;;;;;;9.70;7.83;;;;;;;15.19;73.38;102230.59;688221;28;899;-66
2021/07/23 00:08:51;;;;;;;9.32;7.88;;;;;;;15.24;73.12;102232.19;688285;28;1437;-66
2021/07/23 00:09:11;;;;;;;9.50;7.83;;;;;;;15.19;73.53;102230.59;689183;28;1351;-66
2021/07/23 00:09:31;;;;;;;10.00;8.03;;;;;;;15.20;73.54;102227.00;688112;28;1027;-66
2021/07/23 00:09:52;;;;;;;9.67;7.70;;;;;;;15.20;73.48;102232.31;688117;28;1042;-66
2021/07/23 00:10:12;;;;;;;10.50;7.80;;;;;;;15.15;73.44;102229.00;688140;28;978;-66
2021/07/23 00:10:32;;;;;;;10.13;7.90;;;;;;;15.16;73.58;102229.84;688217;28;842;-67
2021/07/23 00:10:52;;;;;;;10.33;8.03;;;;;;;15.19;73.39;102225.28;688222;28;987;-67
2021/07/23 00:11:13;;;;;;;10.35;7.80;;;;;;;15.19;73.78;102225.28;688282;28;943;-66
2021/07/23 00:11:33;;;;;;;10.60;7.77;;;;;;;15.24;73.72;102229.53;688064;28;793;-65
2021/07/23 00:11:53;;;;;;;9.90;7.83;;;;;;;15.23;73.33;102227.81;688196;28;916;-66
2021/07/23 00:12:14;;;;;;;11.98;8.27;;;;;;;15.23;73.62;102226.03;689656;28;1394;-67
2021/07/23 00:12:34;;;;;;;9.93;8.27;;;;;;;15.25;73.51;102226.00;690952;28;825;-66
2021/07/23 00:12:54;;;;;;;10.13;8.30;;;;;;;15.22;73.39;102226.09;690499;28;915;-66
2021/07/23 00:13:18;;;;;;;10.25;8.25;;;;;;;15.24;73.51;102221.56;690833;28;986;-66
2021/07/23 00:13:38;;;;;;;10.50;7.80;;;;;;;15.25;73.51;102226.84;690866;28;905;-66
2021/07/23 00:13:59;;;;;;;9.40;7.45;;;;;;;15.26;73.42;102227.72;690876;28;841;-66
2021/07/23 00:14:21;;;;;;;10.20;7.85;;;;;;;15.18;73.70;102223.56;690702;28;1418;-66
2021/07/23 00:14:41;;;;;;;10.43;8.05;;;;;;;15.15;73.89;102228.13;690279;28;1453;-66
2021/07/23 00:15:02;;;;;;;10.75;8.32;;;;;;;15.16;73.38;102225.41;690814;28;891;-66
2021/07/23 00:15:22;;;;;;;9.82;7.95;;;;;;;15.20;73.50;102221.69;690919;28;931;-66
2021/07/23 00:15:42;;;;;;;10.23;7.70;;;;;;;15.16;73.81;102220.09;690232;28;1433;-65
2021/07/23 00:16:03;;;;;;;10.33;7.97;;;;;;;15.15;73.62;102229.00;688315;28;1393;-66
2021/07/23 00:16:23;;;;;;;9.45;7.90;;;;;;;15.17;73.58;102227.16;688038;28;1252;-66
2021/07/23 00:16:44;;;;;;;9.90;8.00;;;;;;;15.22;73.69;102226.97;688211;28;1059;-67
2021/07/23 00:17:04;;;;;;;9.57;7.95;;;;;;;15.26;73.36;102219.75;688092;28;837;-67
2021/07/23 00:17:24;;;;;;;9.60;7.90;;;;;;;15.28;73.10;102223.19;688265;28;809;-67
2021/07/23 00:17:48;;;;;;;10.23;7.80;;;;;;;15.35;73.03;102222.03;688036;28;1966;-66
2021/07/23 00:18:10;;;;;;;10.80;7.80;;;;;;;15.33;73.06;102229.19;688125;28;845;-66
2021/07/23 00:18:30;;;;;;;10.40;7.85;;;;;;;15.35;72.96;102222.91;688213;28;982;-66
2021/07/23 00:18:51;;;;;;;9.90;7.78;;;;;;;15.33;73.14;102226.53;688156;28;896;-67
2021/07/23 00:19:11;;;;;;;9.93;7.67;;;;;;;15.33;73.28;102224.75;688551;28;1557;-67
2021/07/23 00:19:31;;;;;;;9.77;7.73;;;;;;;15.34;73.05;102231.78;690971;28;836;-66
2021/07/23 00:19:51;;;;;;;9.48;7.25;;;;;;;15.35;73.42;102222.03;690675;28;1065;-65
2021/07/23 00:20:16;;;;;;;9.07;7.30;;;;;;;15.32;73.22;102223.03;690754;28;935;-66
2021/07/23 00:20:36;;;;;;;9.10;7.55;;;;;;;15.35;73.04;102219.38;690819;28;983;-66
2021/07/23 00:20:56;;;;;;;9.48;7.63;;;;;;;15.39;73.14;102221.00;690971;28;1002;-67
2021/07/23 00:21:17;;;;;;;8.40;7.13;;;;;;;15.42;72.86;102227.03;690897;28;864;-67
2021/07/23 00:21:37;;;;;;;9.20;7.30;;;;;;;15.40;73.26;102225.38;690865;28;806;-67
2021/07/23 00:22:00;;;;;;;10.23;7.65;;;;;;;15.44;73.29;102229.63;690827;28;834;-66
2021/07/23 00:22:21;;;;;;;9.73;7.32;;;;;;;15.41;72.91;102225.28;690848;28;854;-66
2021/07/23 00:22:41;;;;;;;10.43;7.55;;;;;;;15.42;72.94;102227.03;689945;28;1330;-66
2021/07/23 00:23:02;;;;;;;9.37;7.13;;;;;;;15.46;72.70;102227.78;690562;28;868;-66
2021/07/23 00:23:22;;;;;;;9.40;7.20;;;;;;;15.48;72.98;102223.25;690693;28;888;-67
2021/07/23 00:23:42;;;;;;;9.45;7.15;;;;;;;15.49;72.87;102225.00;690443;28;1410;-67
2021/07/23 00:24:03;;;;;;;9.80;7.30;;;;;;;15.47;72.94;102229.50;690561;28;985;-66
2021/07/23 00:24:23;;;;;;;9.80;7.65;;;;;;;15.44;73.00;102229.63;690362;28;1556;-67
2021/07/23 00:24:43;;;;;;;10.70;7.73;;;;;;;15.43;73.31;102231.41;688455;28;1464;-67
2021/07/23 00:25:04;;;;;;;10.27;7.83;;;;;;;15.44;73.12;102224.31;688206;28;904;-67
2021/07/23 00:25:25;;;;;;;9.80;7.20;;;;;;;15.42;73.08;102226.19;688161;28;1164;-67
2021/07/23 00:25:45;;;;;;;8.80;7.32;;;;;;;15.48;73.31;102233.88;688327;28;896;-67
2021/07/23 00:26:12;;;;;;;8.40;7.23;;;;;;;15.48;73.07;102220.59;688161;28;842;-67
2021/07/23 00:26:33;;;;;;;8.63;7.15;;;;;;;15.50;73.15;102224.06;688523;28;1450;-67
2021/07/23 00:26:53;;;;;;;9.63;7.60;;;;;;;15.52;72.76;102222.22;690915;28;999;-67
2021/07/23 00:27:16;;;;;;;9.37;7.40;;;;;;;15.57;72.85;102230.00;690548;28;825;-67
2021/07/23 00:27:36;;;;;;;8.90;6.97;;;;;;;15.60;72.63;102228.09;690757;28;991;-67
2021/07/23 00:27:56;;;;;;;9.30;7.38;;;;;;;15.59;72.82;102229.00;690595;28;870;-67
2021/07/23 00:28:17;;;;;;;10.83;7.80;;;;;;;15.58;72.79;102227.25;690421;28;1038;-67
2021/07/23 00:28:37;;;;;;;9.77;7.30;;;;;;;15.60;73.19;102224.56;690453;28;876;-66
2021/07/23 00:28:57;;;;;;;10.93;7.68;;;;;;;15.62;73.01;102220.91;690662;28;884;-67
2021/07/23 00:29:19;;;;;;;10.87;7.80;;;;;;;15.65;73.09;102223.44;689487;28;1516;-67
2021/07/23 00:29:39;;;;;;;9.13;7.53;;;;;;;15.58;73.05;102224.59;688227;28;822;-67
2021/07/23 00:29:59;;;;;;;9.43;7.40;;;;;;;15.59;72.86;102223.69;688059;28;840;-66
2021/07/23 00:30:21;;;;;;;10.67;7.47;;;;;;;15.60;72.90;102220.09;688061;28;1512;-66
2021/07/23 00:30:41;;;;;;;9.38;7.57;;;;;;;15.62;73.20;102217.38;690549;28;1472;-67
2021/07/23 00:31:01;;;;;;;8.50;7.50;;;;;;;15.66;72.92;102217.25;690930;28;969;-67
2021/07/23 00:31:22;;;;;;;8.37;7.33;;;;;;;15.70;72.85;102220.63;690902;28;990;-67
2021/07/23 00:31:42;;;;;;;8.47;7.13;;;;;;;15.74;72.62;102216.91;690826;28;880;-66
2021/07/23 00:32:08;;;;;;;10.07;7.37;;;;;;;15.68;72.78;102219.81;690739;28;991;-66
2021/07/23 00:32:29;;;;;;;9.35;7.55;;;;;;;15.72;72.68;102217.91;690744;28;1156;-66
2021/07/23 00:32:49;;;;;;;9.50;7.40;;;;;;;15.74;72.58;102218.72;690349;28;805;-67
2021/07/23 00:33:09;;;;;;;9.00;7.27;;;;;;;15.73;72.32;102217.84;691109;28;904;-67
2021/07/23 00:33:32;;;;;;;9.17;7.30;;;;;;;15.76;72.44;102214.19;691029;28;870;-66
2021/07/23 00:33:53;;;;;;;9.05;7.40;;;;;;;15.80;72.39;102218.47;691084;28;1059;-67
2021/07/23 00:34:14;;;;;;;9.67;7.37;;;;;;;15.79;72.23;102220.22;691015;28;998;-67
2021/07/23 00:34:34;;;;;;;10.10;7.55;;;;;;;15.79;72.30;102219.38;690903;28;985;-67
2021/07/23 00:34:54;;;;;;;8.97;7.50;;;;;;;15.80;72.48;102216.66;691056;28;871;-67
2021/07/23 00:35:17;;;;;;;10.40;7.43;;;;;;;15.83;72.06;102226.31;691115;28;930;-67
2021/07/23 00:35:38;;;;;;;9.82;7.30;;;;;;;15.87;72.29;102217.28;690978;28;982;-67
2021/07/23 00:35:58;;;;;;;9.30;7.47;;;;;;;15.89;71.93;102218.06;690983;28;904;-67
2021/07/23 00:36:18;;;;;;;8.55;7.07;;;;;;;15.88;72.00;102224.31;690805;28;1372;-67
2021/07/23 00:36:39;;;;;;;9.13;7.37;;;;;;;15.86;72.04;102216.41;691080;28;842;-67
2021/07/23 00:36:59;;;;;;;9.53;7.63;;;;;;;15.85;72.26;102219.13;691149;28;1023;-67
2021/07/23 00:37:19;;;;;;;9.27;7.53;;;;;;;15.86;72.31;102219.06;690412;28;1270;-67
2021/07/23 00:37:39;;;;;;;8.53;7.13;;;;;;;15.87;72.07;102222.59;690864;28;1902;-67
2021/07/23 00:38:00;;;;;;;9.40;7.30;;;;;;;15.91;71.95;102224.19;690944;28;946;-67
2021/07/23 00:38:20;;;;;;;10.67;7.20;;;;;;;15.94;72.09;102215.22;690938;28;864;-66
2021/07/23 00:38:40;;;;;;;8.70;6.93;;;;;;;15.90;71.99;102222.47;691044;28;867;-67
2021/07/23 00:39:00;;;;;;;8.87;7.27;;;;;;;15.87;71.93;102218.13;689189;28;1421;-67
2021/07/23 00:39:21;;;;;;;8.43;7.07;;;;;;;15.87;71.97;102222.59;688468;28;817;-67
2021/07/23 00:39:41;;;;;;;8.65;7.20;;;;;;;15.89;72.22;102221.56;688462;28;1007;-69
2021/07/23 00:40:02;;;;;;;8.90;7.17;;;;;;;15.92;72.25;102215.28;688259;28;995;-67
2021/07/23 00:40:23;;;;;;;8.57;7.22;;;;;;;15.94;72.29;102216.09;688343;28;801;-67
2021/07/23 00:40:43;;;;;;;8.57;7.25;;;;;;;15.95;72.36;102216.94;688343;28;857;-66
2021/07/23 00:41:04;;;;;;;9.55;7.20;;;;;;;15.98;72.12;102215.00;688247;28;960;-67
2021/07/23 00:41:24;;;;;;;10.23;7.27;;;;;;;15.99;71.83;102216.72;688496;28;853;-66
2021/07/23 00:41:50;;;;;;;9.57;7.53;;;;;;;15.96;72.30;102214.19;688392;28;852;-67
2021/07/23 00:42:13;;;;;;;8.90;7.05;;;;;;;15.96;72.26;102214.19;688177;28;916;-67
2021/07/23 00:42:43;;;;;;;9.20;7.20;;;;;;;15.99;71.99;102210.56;688415;28;1051;-67
2021/07/23 00:43:06;;;;;;;9.00;7.40;;;;;;;16.01;71.86;102214.88;688089;28;896;-66
2021/07/23 00:43:26;;;;;;;9.63;7.30;;;;;;;16.00;71.87;102210.50;688351;28;1480;-67
2021/07/23 00:43:47;;;;;;;9.10;7.30;;;;;;;15.98;72.08;102214.16;688166;28;887;-66
2021/07/23 00:44:07;;;;;;;9.20;7.23;;;;;;;15.97;71.97;102210.63;688125;28;817;-66
2021/07/23 00:44:27;;;;;;;9.40;7.40;;;;;;;16.00;71.79;102207.84;688128;28;1433;-67
2021/07/23 00:44:47;;;;;;;9.13;7.33;;;;;;;16.01;71.95;102204.25;688004;28;1628;-67
2021/07/23 00:45:09;;;;;;;8.97;7.20;;;;;;;16.02;72.24;102207.75;688059;28;825;-66
2021/07/23 00:45:29;;;;;;;8.85;7.07;;;;;;;15.96;72.16;102208.88;688208;28;921;-66
2021/07/23 00:45:50;;;;;;;9.40;7.40;;;;;;;15.95;72.50;102207.16;688117;28;1410;-66
2021/07/23 00:46:10;;;;;;;9.20;7.40;;;;;;;15.96;72.36;102208.88;690710;28;1030;-66
2021/07/23 00:46:35;;;;;;;10.05;7.55;;;;;;;15.98;72.18;102204.38;690761;28;1325;-67
2021/07/23 00:46:56;;;;;;;8.60;7.15;;;;;;;15.96;72.09;102211.53;690966;28;847;-67
2021/07/23 00:47:19;;;;;;;8.73;7.57;;;;;;;15.94;71.97;102208.09;690795;28;840;-66
2021/07/23 00:47:43;;;;;;;10.27;7.80;;;;;;;15.95;71.96;102201.84;690955;28;867;-66
2021/07/23 00:48:04;;;;;;;9.25;7.50;;;;;;;15.95;71.93;102204.50;690818;28;1094;-67
2021/07/23 00:48:25;;;;;;;9.38;7.50;;;;;;;15.98;71.68;102204.38;690804;28;816;-67
2021/07/23 00:48:46;;;;;;;8.48;7.10;;;;;;;15.98;71.71;102209.69;690482;28;1373;-67
2021/07/23 00:49:06;;;;;;;8.85;7.13;;;;;;;15.97;71.71;102207.97;688633;28;1511;-66
2021/07/23 00:49:27;;;;;;;9.15;7.20;;;;;;;16.00;71.92;102202.53;688141;28;806;-67
2021/07/23 00:49:48;;;;;;;9.02;7.15;;;;;;;16.02;71.73;102205.97;688227;28;833;-67
2021/07/23 00:50:09;;;;;;;9.43;7.30;;;;;;;16.00;72.12;102205.19;688001;28;881;-67
2021/07/23 00:50:31;;;;;;;9.95;7.18;;;;;;;15.97;72.28;102205.31;688166;28;1035;-67
2021/07/23 00:50:51;;;;;;;9.70;7.53;;;;;;;15.99;72.21;102207.91;688286;28;865;-67
2021/07/23 00:51:15;;;;;;;9.25;7.43;;;;;;;16.03;72.12;102210.34;688064;28;837;-66
2021/07/23 00:51:36;;;;;;;8.23;7.35;;;;;;;16.05;72.05;102205.84;688293;28;968;-67
2021/07/23 00:51:56;;;;;;;8.30;7.40;;;;;;;16.01;72.05;102208.72;688040;28;906;-67
2021/07/23 00:52:20;;;;;;;8.90;6.80;;;;;;;16.00;72.14;102206.97;688193;28;799;-67
2021/07/23 00:52:40;;;;;;;9.38;7.15;;;;;;;15.96;72.64;102206.22;687928;28;904;-67
2021/07/23 00:53:03;;;;;;;10.32;7.05;;;;;;;16.00;72.55;102207.84;687932;28;888;-67
2021/07/23 00:53:24;;;;;;;10.40;7.50;;;;;;;15.98;72.27;102204.38;688309;28;1488;-67
2021/07/23 00:53:44;;;;;;;10.67;7.80;;;;;;;15.98;72.32;102209.69;689052;28;1515;-66
2021/07/23 00:54:09;;;;;;;9.52;7.82;;;;;;;16.04;72.34;102209.44;688055;28;983;-67
2021/07/23 00:54:30;;;;;;;8.35;7.45;;;;;;;16.05;72.06;102205.84;688214;28;928;-67
2021/07/23 00:54:50;;;;;;;9.27;7.47;;;;;;;16.08;71.89;102205.72;688058;28;927;-67
2021/07/23 00:55:12;;;;;;;9.83;7.23;;;;;;;16.03;71.76;102210.34;688295;28;920;-67
2021/07/23 00:55:33;;;;;;;9.80;7.40;;;;;;;15.99;72.23;102206.09;688024;28;911;-67
2021/07/23 00:55:55;;;;;;;9.95;7.80;;;;;;;15.97;72.16;102207.13;688092;28;1070;-66
2021/07/23 00:56:16;;;;;;;9.75;7.82;;;;;;;15.95;72.07;102209.81;688293;28;943;-66
2021/07/23 00:56:40;;;;;;;9.68;7.70;;;;;;;15.99;72.13;102205.25;688085;28;912;-67
2021/07/23 00:57:00;;;;;;;9.00;7.47;;;;;;;15.97;72.38;102207.97;688175;28;876;-66
2021/07/23 00:57:20;;;;;;;8.73;7.43;;;;;;;15.99;72.29;102210.56;688360;28;860;-67
2021/07/23 00:57:41;;;;;;;9.40;7.72;;;;;;;15.95;72.25;102207.16;687838;28;1906;-66
2021/07/23 00:58:02;;;;;;;9.57;7.88;;;;;;;15.99;72.01;102214.06;687922;28;876;-67
2021/07/23 00:58:24;;;;;;;10.63;7.73;;;;;;;16.04;71.95;102206.78;688063;28;856;-66
2021/07/23 00:58:45;;;;;;;10.10;7.63;;;;;;;16.07;71.76;102211.97;687893;28;979;-66
2021/07/23 00:59:05;;;;;;;9.20;7.40;;;;;;;16.08;72.18;102210.16;688246;28;1496;-66
2021/07/23 00:59:26;;;;;;;9.18;7.18;;;;;;;16.08;72.15;102204.84;687993;28;1022;-66
2021/07/23 00:59:46;;;;;;;8.97;7.33;;;;;;;16.12;72.11;102211.75;687865;28;840;-66
2021/07/23 01:00:07;;;;;;;8.55;7.32;;;;;;;16.07;71.94;102209.31;688098;28;980;-66
2021/07/23 01:00:28;;;;;;;9.10;7.53;;;;;;;16.05;72.56;102211.16;688261;28;1038;-66
2021/07/23 01:00:48;;;;;;;9.70;7.53;;;;;;;16.04;72.33;102209.44;688176;28;892;-66
2021/07/23 01:01:12;;;;;;;9.87;7.80;;;;;;;16.03;72.79;102213.00;688214;28;884;-66
2021/07/23 01:01:32;;;;;;;10.18;7.32;;;;;;;16.05;72.75;102211.16;688146;28;884;-66
2021/07/23 01:01:53;;;;;;;9.90;7.40;;;;;;;16.06;72.62;102215.53;688041;28;850;-67
2021/07/23 01:02:13;;;;;;;10.23;7.43;;;;;;;16.04;73.07;102206.78;688203;28;839;-67
2021/07/23 01:02:34;;;;;;;8.73;7.47;;;;;;;16.09;72.73;102207.44;688139;28;907;-66
2021/07/23 01:02:57;;;;;;;8.57;7.03;;;;;;;16.10;73.09;102206.53;687693;28;848;-66
2021/07/23 01:03:18;;;;;;;9.07;7.10;;;;;;;16.10;72.88;102202.97;688202;28;862;-66
2021/07/23 01:03:38;;;;;;;9.27;7.67;;;;;;;16.11;72.64;102210.91;687991;28;886;-65
2021/07/23 01:04:04;;;;;;;9.10;7.40;;;;;;;16.12;72.67;102211.75;688027;28;911;-65
2021/07/23 01:04:25;;;;;;;8.80;7.00;;;;;;;16.17;72.56;102214.22;688146;28;967;-66
2021/07/23 01:04:46;;;;;;;9.50;7.43;;;;;;;16.14;72.77;102205.44;688159;28;841;-68
2021/07/23 01:05:06;;;;;;;9.23;7.10;;;;;;;16.17;72.75;102208.88;688086;28;821;-66
2021/07/23 01:05:27;;;;;;;8.98;6.80;;;;;;;16.21;72.50;102205.16;688218;28;1054;-66
2021/07/23 01:05:50;;;;;;;8.80;7.03;;;;;;;16.24;72.62;102210.34;687968;28;838;-64
2021/07/23 01:06:11;;;;;;;8.77;7.18;;;;;;;16.26;72.67;102211.16;688044;28;1365;-67
2021/07/23 01:06:33;;;;;;;9.50;7.25;;;;;;;16.27;72.35;102211.06;687957;28;1138;-67
2021/07/23 01:06:57;;;;;;;8.55;7.05;;;;;;;16.27;72.25;102211.06;687852;28;1085;-65
2021/07/23 01:07:17;;;;;;;8.63;7.15;;;;;;;16.29;72.54;102211.03;688317;28;808;-66
2021/07/23 01:07:38;;;;;;;8.67;7.40;;;;;;;16.27;72.35;102204.91;688128;28;941;-66
2021/07/23 01:08:01;;;;;;;9.73;7.53;;;;;;;16.21;72.33;102205.16;687947;28;963;-66
2021/07/23 01:08:21;;;;;;;9.25;7.53;;;;;;;16.24;72.36;102210.34;689609;28;1390;-66
2021/07/23 01:08:44;;;;;;;8.87;7.50;;;;;;;16.22;72.42;102206.91;688092;28;1261;-68
2021/07/23 01:09:05;;;;;;;9.65;7.60;;;;;;;16.26;72.58;102209.34;689934;28;1374;-66
2021/07/23 01:09:25;;;;;;;9.65;7.80;;;;;;;16.27;72.48;102207.56;691010;28;888;-67
2021/07/23 01:09:45;;;;;;;9.37;7.90;;;;;;;16.26;72.04;102211.16;690723;28;971;-66
2021/07/23 01:10:06;;;;;;;8.53;7.60;;;;;;;16.24;72.33;102205.91;690719;28;904;-66
2021/07/23 01:10:27;;;;;;;10.30;8.15;;;;;;;16.27;72.08;102210.22;690933;28;971;-66
2021/07/23 01:10:49;;;;;;;9.95;7.97;;;;;;;16.28;72.29;102201.31;690844;28;832;-66
2021/07/23 01:11:12;;;;;;;9.15;7.57;;;;;;;16.22;72.47;102199.78;690888;28;848;-66
2021/07/23 01:11:34;;;;;;;9.23;7.47;;;;;;;16.24;72.62;102205.03;690784;28;875;-66
2021/07/23 01:11:54;;;;;;;9.93;7.80;;;;;;;16.25;72.31;102197.00;690876;28;884;-66
2021/07/23 01:12:15;;;;;;;9.93;7.90;;;;;;;16.30;72.39;102202.09;690837;28;959;-67
2021/07/23 01:12:36;;;;;;;8.63;7.68;;;;;;;16.30;72.32;102202.97;690874;28;797;-67
2021/07/23 01:12:59;;;;;;;9.45;7.70;;;;;;;16.32;72.45;102202.91;690589;28;926;-67
2021/07/23 01:13:19;;;;;;;8.93;7.47;;;;;;;16.33;72.46;102201.97;691226;28;1042;-67
2021/07/23 01:13:41;;;;;;;9.13;7.78;;;;;;;16.33;72.55;102199.31;689917;28;1441;-65
2021/07/23 01:14:02;;;;;;;9.30;7.88;;;;;;;16.35;72.27;102198.31;688353;28;1016;-66
2021/07/23 01:14:22;;;;;;;8.73;7.40;;;;;;;16.32;72.38;102200.25;688252;28;876;-67
2021/07/23 01:14:45;;;;;;;8.50;7.10;;;;;;;16.31;72.28;102198.50;688422;28;833;-66
2021/07/23 01:15:06;;;;;;;9.73;8.00;;;;;;;16.31;72.65;102201.16;688289;28;879;-66
2021/07/23 01:15:29;;;;;;;10.13;7.95;;;;;;;16.25;72.48;102206.78;688533;28;1029;-66
2021/07/23 01:15:49;;;;;;;9.43;7.70;;;;;;;16.26;72.45;102197.84;688717;28;1434;-66
2021/07/23 01:16:10;;;;;;;8.73;7.53;;;;;;;16.28;72.51;102201.31;690772;28;1237;-66
2021/07/23 01:16:31;;;;;;;8.48;7.55;;;;;;;16.30;72.39;102200.31;690636;28;1381;-66
2021/07/23 01:16:52;;;;;;;9.38;7.68;;;;;;;16.28;72.65;102204.00;690686;28;1333;-66
2021/07/23 01:17:13;;;;;;;9.45;7.50;;;;;;;16.29;72.64;102203.03;690778;28;883;-66
2021/07/23 01:17:33;;;;;;;9.20;7.75;;;;;;;16.31;72.31;102201.16;690848;28;1910;-66
2021/07/23 01:17:54;;;;;;;8.77;7.77;;;;;;;16.32;72.13;102197.59;690808;28;871;-66
2021/07/23 01:18:14;;;;;;;8.85;7.75;;;;;;;16.35;72.42;102202.78;691322;28;845;-66
2021/07/23 01:18:35;;;;;;;8.87;7.67;;;;;;;16.35;72.27;102200.13;690474;28;1440;-66
2021/07/23 01:18:55;;;;;;;9.40;7.20;;;;;;;16.37;72.30;102201.75;688972;28;845;-65
2021/07/23 01:19:18;;;;;;;9.93;7.90;;;;;;;16.30;71.96;102202.97;689036;28;959;-66
2021/07/23 01:19:46;;;;;;;11.02;8.77;;;;;;;16.33;71.88;102196.66;688854;28;899;-66
2021/07/23 01:20:16;;;;;;;10.27;8.13;;;;;;;16.32;71.77;102197.59;688689;28;970;-66
2021/07/23 01:20:38;;;;;;;9.77;8.07;;;;;;;16.34;72.02;102195.72;688873;28;935;-66
2021/07/23 01:21:00;;;;;;;10.20;8.10;;;;;;;16.30;72.19;102200.31;688917;28;989;-66
2021/07/23 01:21:21;;;;;;;9.55;7.70;;;;;;;16.33;71.79;102196.66;689200;28;1070;-66
2021/07/23 01:21:44;;;;;;;10.60;7.83;;;;;;;16.32;72.07;102194.94;688669;28;1029;-66
2021/07/23 01:22:11;;;;;;;8.93;7.80;;;;;;;16.35;71.80;102200.13;688771;28;1078;-66
2021/07/23 01:22:34;;;;;;;9.55;7.65;;;;;;;16.38;72.28;102200.00;688572;28;1109;-67
2021/07/23 01:22:57;;;;;;;9.50;7.55;;;;;;;16.32;72.43;102200.25;688238;28;880;-66
2021/07/23 01:23:39;;;;;;;9.73;7.57;;;;;;;16.32;72.49;102198.44;688547;28;1050;-66
2021/07/23 01:24:01;;;;;;;10.00;7.93;;;;;;;16.30;72.29;102191.47;689751;28;895;-66
2021/07/23 01:24:21;;;;;;;9.30;8.00;;;;;;;16.28;72.26;102201.31;689916;28;886;-65
2021/07/23 01:24:42;;;;;;;9.00;7.88;;;;;;;16.30;72.58;102196.78;689592;28;947;-65
2021/07/23 01:25:03;;;;;;;9.70;7.68;;;;;;;16.33;72.26;102194.00;689588;28;777;-65
2021/07/23 01:25:24;;;;;;;10.02;7.68;;;;;;;16.35;72.26;102197.47;689344;28;1184;-65
2021/07/23 01:25:45;;;;;;;10.95;8.27;;;;;;;16.29;72.52;102200.38;689586;28;979;-65
2021/07/23 01:26:06;;;;;;;10.40;8.15;;;;;;;16.29;72.45;102195.06;689318;28;886;-66
2021/07/23 01:26:26;;;;;;;9.90;7.93;;;;;;;16.32;72.20;102189.63;689135;28;1419;-66
2021/07/23 01:26:49;;;;;;;11.10;7.77;;;;;;;16.34;72.27;102195.72;689159;28;883;-66
2021/07/23 01:27:11;;;;;;;9.68;7.50;;;;;;;16.37;72.39;102195.56;689147;28;904;-66
2021/07/23 01:27:35;;;;;;;10.35;7.72;;;;;;;16.37;72.58;102198.25;689115;28;1031;-66
2021/07/23 01:27:56;;;;;;;9.88;7.88;;;;;;;16.40;72.14;102195.44;688893;28;864;-66
2021/07/23 01:28:18;;;;;;;9.70;7.85;;;;;;;16.38;72.22;102197.31;689010;28;887;-66
2021/07/23 01:28:38;;;;;;;10.32;7.88;;;;;;;16.37;72.33;102200.91;688953;28;1499;-67
2021/07/23 01:28:58;;;;;;;10.23;8.17;;;;;;;16.36;72.18;102193.84;688313;28;899;-66
2021/07/23 01:29:20;;;;;;;9.63;7.72;;;;;;;16.37;72.22;102187.59;689982;28;1445;-66
2021/07/23 01:29:40;;;;;;;9.07;7.40;;;;;;;16.38;72.06;102192.00;691176;28;1472;-66
2021/07/23 01:30:08;;;;;;;9.97;7.77;;;;;;;16.44;71.90;102190.84;690780;28;1066;-65
2021/07/23 01:30:29;;;;;;;10.75;8.40;;;;;;;16.40;72.09;102191.91;690882;28;1268;-66
2021/07/23 01:30:49;;;;;;;10.23;7.63;;;;;;;16.43;72.21;102195.31;690733;28;998;-66
2021/07/23 01:31:10;;;;;;;9.60;7.80;;;;;;;16.45;71.79;102193.47;690833;28;1031;-66
2021/07/23 01:31:31;;;;;;;9.63;7.68;;;;;;;16.47;72.07;102196.88;690807;28;1093;-65
2021/07/23 01:31:51;;;;;;;9.10;7.53;;;;;;;16.46;71.83;102195.16;690470;28;1070;-65
2021/07/23 01:32:12;;;;;;;10.00;7.90;;;;;;;16.44;72.16;102190.84;690852;28;872;-66
2021/07/23 01:32:32;;;;;;;9.50;7.78;;;;;;;16.37;72.43;102200.91;690791;28;852;-66
2021/07/23 01:32:53;;;;;;;9.87;7.73;;;;;;;16.33;72.48;102200.16;690081;28;947;-67
2021/07/23 01:33:13;;;;;;;9.90;7.88;;;;;;;16.36;72.31;102193.84;690811;28;846;-66
2021/07/23 01:33:34;;;;;;;9.40;8.00;;;;;;;16.40;72.38;102202.56;690664;28;982;-66
2021/07/23 01:33:54;;;;;;;9.90;8.25;;;;;;;16.38;72.11;102202.66;690964;28;1433;-66
2021/07/23 01:34:14;;;;;;;9.43;8.07;;;;;;;16.35;72.50;102205.44;693328;28;1040;-66
2021/07/23 01:34:34;;;;;;;9.27;7.80;;;;;;;16.33;72.38;102204.63;693198;28;1045;-66
2021/07/23 01:34:55;;;;;;;9.07;7.90;;;;;;;16.38;72.45;102202.66;693337;28;927;-65
2021/07/23 01:35:17;;;;;;;10.27;7.90;;;;;;;16.38;72.45;102200.84;693285;28;1408;-65
2021/07/23 01:35:37;;;;;;;10.88;7.97;;;;;;;16.42;72.31;102198.91;693150;28;864;-65
2021/07/23 01:35:58;;;;;;;8.83;7.90;;;;;;;16.44;72.24;102197.03;693256;28;1018;-66
2021/07/23 01:36:18;;;;;;;8.82;7.93;;;;;;;16.36;71.97;102202.69;693122;28;1244;-66
2021/07/23 01:36:41;;;;;;;9.90;8.23;;;;;;;16.32;72.57;102202.91;693069;28;931;-66
2021/07/23 01:37:01;;;;;;;10.95;8.02;;;;;;;16.28;72.78;102201.31;693287;28;1081;-66
2021/07/23 01:37:23;;;;;;;10.60;7.93;;;;;;;16.26;72.88;102197.84;692702;28;822;-66
2021/07/23 01:37:47;;;;;;;8.93;7.63;;;;;;;16.23;72.78;102203.31;692739;28;1954;-66
2021/07/23 01:38:08;;;;;;;9.27;7.90;;;;;;;16.25;72.73;102196.13;692396;28;1042;-66
2021/07/23 01:38:28;;;;;;;9.80;7.93;;;;;;;16.29;72.84;102203.91;692556;28;1500;-66
2021/07/23 01:38:53;;;;;;;9.88;7.78;;;;;;;16.33;72.59;102199.31;691368;28;1445;-67
2021/07/23 01:39:16;;;;;;;10.50;8.13;;;;;;;16.34;72.51;102195.72;689076;28;1034;-66
2021/07/23 01:39:38;;;;;;;9.48;7.88;;;;;;;16.34;72.57;102201.03;688916;28;978;-66
2021/07/23 01:39:59;;;;;;;10.13;7.85;;;;;;;16.37;72.60;102196.44;688459;28;959;-66
2021/07/23 01:40:19;;;;;;;10.43;8.05;;;;;;;16.40;72.35;102198.09;688106;28;1038;-66
2021/07/23 01:40:44;;;;;;;9.40;7.70;;;;;;;16.40;72.41;102195.44;688598;28;1496;-66
2021/07/23 01:41:04;;;;;;;9.75;7.85;;;;;;;16.41;72.24;102199.81;688580;28;860;-66
2021/07/23 01:41:27;;;;;;;9.73;7.97;;;;;;;16.40;72.44;102200.75;688553;28;889;-66
2021/07/23 01:41:48;;;;;;;9.68;7.97;;;;;;;16.34;72.55;102195.72;688592;28;968;-65